createdAt,value
2023-01-09T00:00:58.057Z,31.40
2023-01-09T00:03:25.252Z,25.43
2023-01-09T00:05:52.538Z,25.87
2023-01-09T00:08:19.869Z,26.77
2023-01-09T00:10:49.642Z,23.90
2023-01-09T00:13:18.382Z,28.60
2023-01-09T00:15:45.718Z,26.70
2023-01-09T00:18:13.151Z,25.40
2023-01-09T00:20:40.519Z,27.97
2023-01-09T00:23:07.728Z,21.20
2023-01-09T00:25:35.961Z,23.07
2023-01-09T00:28:03.391Z,24.00
2023-01-09T00:30:30.691Z,18.97
2023-01-09T00:32:57.844Z,23.50
2023-01-09T00:35:26.726Z,25.33
2023-01-09T00:37:54.002Z,22.80
2023-01-09T00:40:21.795Z,26.23
2023-01-09T00:42:55.280Z,20.73
2023-01-09T00:45:29.164Z,26.07
2023-01-09T00:48:02.980Z,22.53
2023-01-09T00:50:32.208Z,22.83
2023-01-09T00:53:05.368Z,23.37
2023-01-09T00:55:34.530Z,24.43
2023-01-09T00:58:03.095Z,25.60
2023-01-09T01:00:30.291Z,24.07
2023-01-09T01:02:57.615Z,26.27
2023-01-09T01:05:43.862Z,25.40
2023-01-09T01:08:15.456Z,22.37
2023-01-09T01:10:43.241Z,25.20
2023-01-09T01:13:10.625Z,22.90
2023-01-09T01:15:42.650Z,23.17
2023-01-09T01:18:10.969Z,18.70
2023-01-09T01:20:44.010Z,22.63
2023-01-09T01:23:11.413Z,17.07
2023-01-09T01:25:42.612Z,22.53
2023-01-09T01:28:10.717Z,11.10
2023-01-09T01:30:39.643Z,22.23
2023-01-09T01:33:07.347Z,14.23
2023-01-09T01:35:34.550Z,19.87
2023-01-09T01:38:01.795Z,16.03
2023-01-09T01:40:29.876Z,17.70
2023-01-09T01:42:57.133Z,18.63
2023-01-09T01:45:29.073Z,21.50
2023-01-09T01:50:34.341Z,10.57
2023-01-09T01:53:28.570Z,20.60
2023-01-09T01:56:15.967Z,14.87
2023-01-09T01:58:55.412Z,19.93
2023-01-09T02:01:24.745Z,18.00
2023-01-09T02:03:55.543Z,15.87
2023-01-09T02:06:22.942Z,22.33
2023-01-09T02:08:50.661Z,14.93
2023-01-09T02:11:20.427Z,19.27
2023-01-09T02:13:48.326Z,16.90
2023-01-09T02:16:30.924Z,19.87
2023-01-09T02:19:25.803Z,20.43
2023-01-09T02:22:20.419Z,21.63
2023-01-09T02:25:04.155Z,13.30
2023-01-09T02:27:34.568Z,16.13
2023-01-09T02:30:52.435Z,16.53
2023-01-09T02:33:30.146Z,15.87
2023-01-09T02:36:47.430Z,18.10
2023-01-09T02:39:31.300Z,14.50
2023-01-09T02:42:09.294Z,18.90
2023-01-09T02:44:37.127Z,15.73
2023-01-09T02:47:16.123Z,18.27
2023-01-09T02:50:04.995Z,12.23
2023-01-09T02:53:04.263Z,15.07
2023-01-09T02:55:31.647Z,14.87
2023-01-09T02:58:02.042Z,17.50
2023-01-09T03:00:41.927Z,16.47
2023-01-09T03:03:17.768Z,14.30
2023-01-09T03:06:27.723Z,15.57
2023-01-09T03:08:59.463Z,13.73
2023-01-09T03:11:31.452Z,19.00
2023-01-09T03:14:07.107Z,12.00
2023-01-09T03:16:38.844Z,13.60
2023-01-09T03:21:36.020Z,17.70
2023-01-09T03:24:03.305Z,16.60
2023-01-09T03:26:31.232Z,20.93
2023-01-09T03:28:59.629Z,15.57
2023-01-09T03:31:26.843Z,19.93
2023-01-09T03:33:54.282Z,17.40
2023-01-09T03:36:22.447Z,20.70
2023-01-09T03:38:49.912Z,17.27
2023-01-09T03:41:17.480Z,17.67
2023-01-09T03:43:44.898Z,20.67
2023-01-09T03:46:12.400Z,15.13
2023-01-09T03:48:39.513Z,17.70
2023-01-09T03:51:06.709Z,20.47
2023-01-09T03:53:33.877Z,18.40
2023-01-09T03:56:00.931Z,21.97
2023-01-09T03:58:28.640Z,20.63
2023-01-09T04:01:01.662Z,17.23
2023-01-09T04:03:29.386Z,15.67
2023-01-09T04:05:56.959Z,18.20
2023-01-09T04:08:24.446Z,18.73
2023-01-09T04:10:52.139Z,20.47
2023-01-09T04:13:20.148Z,16.87
2023-01-09T04:15:47.253Z,15.37
2023-01-09T04:18:14.912Z,15.10
2023-01-09T04:20:42.866Z,18.83
2023-01-09T04:23:10.363Z,17.90
2023-01-09T04:25:37.438Z,16.47
2023-01-09T04:28:04.805Z,19.90
2023-01-09T04:30:32.321Z,17.60
2023-01-09T04:32:59.354Z,16.57
2023-01-09T04:35:26.573Z,12.30
2023-01-09T04:37:54.108Z,12.47
2023-01-09T04:40:21.413Z,20.97
2023-01-09T04:42:48.969Z,15.33
2023-01-09T04:45:17.353Z,16.80
2023-01-09T04:47:45.118Z,16.67
2023-01-09T04:50:13.227Z,14.40
2023-01-09T04:52:40.852Z,15.57
2023-01-09T04:55:09.234Z,18.80
2023-01-09T04:57:37.205Z,14.27
2023-01-09T05:00:09.866Z,13.77
2023-01-09T05:02:37.689Z,13.33
2023-01-09T05:05:06.156Z,10.40
2023-01-09T05:07:33.644Z,16.00
2023-01-09T05:10:01.262Z,12.70
2023-01-09T05:12:28.958Z,14.60
2023-01-09T05:14:57.886Z,13.90
2023-01-09T05:17:25.415Z,15.93
2023-01-09T05:19:52.837Z,13.97
2023-01-09T05:22:19.868Z,14.90
2023-01-09T05:24:47.119Z,16.53
2023-01-09T05:27:14.366Z,13.57
2023-01-09T05:29:41.912Z,18.77
2023-01-09T05:32:09.333Z,15.17
2023-01-09T05:34:36.471Z,18.57
2023-01-09T05:37:03.655Z,12.67
2023-01-09T05:39:31.170Z,12.40
2023-01-09T05:41:58.736Z,11.83
2023-01-09T05:44:26.144Z,14.53
2023-01-09T05:46:53.605Z,12.03
2023-01-09T05:49:20.702Z,15.97
2023-01-09T05:51:48.158Z,18.57
2023-01-09T05:54:15.404Z,10.70
2023-01-09T05:56:42.970Z,13.90
2023-01-09T05:59:10.535Z,11.67
2023-01-09T06:01:37.933Z,11.30
2023-01-09T06:04:05.360Z,13.67
2023-01-09T06:06:32.960Z,16.10
2023-01-09T06:09:00.008Z,12.93
2023-01-09T06:11:27.148Z,15.40
2023-01-09T06:13:54.194Z,15.70
2023-01-09T06:16:21.308Z,16.83
2023-01-09T06:18:48.939Z,11.43
2023-01-09T06:21:16.180Z,14.93
2023-01-09T06:23:43.251Z,10.20
2023-01-09T06:26:10.386Z,9.67
2023-01-09T06:28:37.582Z,12.43
2023-01-09T06:31:05.351Z,13.80
2023-01-09T06:33:32.879Z,13.77
2023-01-09T06:35:59.968Z,9.17
2023-01-09T06:38:27.238Z,13.00
2023-01-09T06:40:54.361Z,14.97
2023-01-09T06:43:21.564Z,13.83
2023-01-09T06:45:48.743Z,9.57
2023-01-09T06:48:15.983Z,12.93
2023-01-09T06:50:43.125Z,11.97
2023-01-09T06:53:10.907Z,9.50
2023-01-09T06:55:38.128Z,11.90
2023-01-09T06:58:05.969Z,10.20
2023-01-09T07:00:33.131Z,11.50
2023-01-09T07:03:00.669Z,13.20
2023-01-09T07:05:27.843Z,18.17
2023-01-09T07:07:54.970Z,15.60
2023-01-09T07:10:22.143Z,21.23
2023-01-09T07:12:49.487Z,13.67
2023-01-09T07:15:16.767Z,12.80
2023-01-09T07:17:45.060Z,14.03
2023-01-09T07:20:12.596Z,14.67
2023-01-09T07:22:39.685Z,12.80
2023-01-09T07:25:07.042Z,12.73
2023-01-09T07:27:34.225Z,12.60
2023-01-09T07:30:01.438Z,9.33
2023-01-09T07:32:31.057Z,13.17
2023-01-09T07:34:58.320Z,9.03
2023-01-09T07:37:25.946Z,12.53
2023-01-09T07:39:53.691Z,12.23
2023-01-09T07:42:20.933Z,15.30
2023-01-09T07:44:48.062Z,12.63
2023-01-09T07:47:15.262Z,12.63
2023-01-09T07:49:42.573Z,17.20
2023-01-09T07:52:09.807Z,14.80
2023-01-09T07:54:37.012Z,17.00
2023-01-09T07:57:04.352Z,13.87
2023-01-09T07:59:31.568Z,19.83
2023-01-09T08:01:58.762Z,12.67
2023-01-09T08:04:26.014Z,15.40
2023-01-09T08:06:53.176Z,15.57
2023-01-09T08:09:20.349Z,10.43
2023-01-09T08:11:47.500Z,14.83
2023-01-09T08:14:14.715Z,16.47
2023-01-09T08:16:41.876Z,14.77
2023-01-09T08:19:12.212Z,10.70
2023-01-09T08:21:40.019Z,14.87
2023-01-09T08:24:07.702Z,13.70
2023-01-09T08:26:34.805Z,13.13
2023-01-09T08:29:01.940Z,14.53
2023-01-09T08:31:29.285Z,12.63
2023-01-09T08:33:56.490Z,16.27
2023-01-09T08:36:23.726Z,13.80
2023-01-09T08:38:50.907Z,19.07
2023-01-09T08:41:36.601Z,13.83
2023-01-09T08:44:22.453Z,10.37
2023-01-09T08:47:07.819Z,13.33
2023-01-09T08:49:37.275Z,12.97
2023-01-09T08:52:05.976Z,17.23
2023-01-09T08:54:36.952Z,16.33
2023-01-09T08:57:04.160Z,18.23
2023-01-09T08:59:31.314Z,9.83
2023-01-09T09:01:58.650Z,15.67
2023-01-09T09:04:26.157Z,13.83
2023-01-09T09:06:53.514Z,12.13
2023-01-09T09:09:20.604Z,15.13
2023-01-09T09:11:47.776Z,10.10
2023-01-09T09:14:33.716Z,11.40
2023-01-09T09:17:00.992Z,17.73
2023-01-09T09:19:28.189Z,14.83
2023-01-09T09:21:55.348Z,14.17
2023-01-09T09:24:22.484Z,13.60
2023-01-09T09:26:49.567Z,9.27
2023-01-09T09:29:16.724Z,11.57
2023-01-09T09:31:43.985Z,10.47
2023-01-09T09:34:11.278Z,17.30
2023-01-09T09:36:38.497Z,8.97
2023-01-09T09:39:07.589Z,11.10
2023-01-09T09:42:34.083Z,12.30
2023-01-09T09:45:21.246Z,11.47
2023-01-09T09:47:57.527Z,11.80
2023-01-09T09:51:02.535Z,9.93
2023-01-09T09:53:51.774Z,12.30
2023-01-09T09:56:23.856Z,14.00
2023-01-09T09:59:05.470Z,9.83
2023-01-09T10:01:50.975Z,10.38
2023-01-09T10:04:20.274Z,12.27
2023-01-09T10:07:09.987Z,6.93
2023-01-09T10:09:54.764Z,12.27
2023-01-09T10:12:30.079Z,9.87
2023-01-09T10:15:02.533Z,12.77
2023-01-09T10:17:39.941Z,9.63
2023-01-09T10:20:25.353Z,12.83
2023-01-09T10:23:06.300Z,8.67
2023-01-09T10:25:45.425Z,15.27
2023-01-09T10:28:50.141Z,10.53
2023-01-09T10:31:37.674Z,12.17
2023-01-09T10:34:22.771Z,13.27
2023-01-09T10:37:10.745Z,8.40
2023-01-09T10:40:01.570Z,8.43
2023-01-09T10:43:06.446Z,13.93
2023-01-09T10:48:11.924Z,19.02
2023-01-09T10:50:41.942Z,14.73
2023-01-09T10:53:21.968Z,15.43
2023-01-09T10:55:54.558Z,13.53
2023-01-09T10:58:23.362Z,11.93
2023-01-09T11:00:51.434Z,16.73
2023-01-09T11:03:21.760Z,13.17
2023-01-09T11:05:53.079Z,11.60
2023-01-09T11:08:43.061Z,13.27
2023-01-09T11:11:10.878Z,14.13
2023-01-09T11:13:43.657Z,13.90
2023-01-09T11:16:24.104Z,16.43
2023-01-09T11:19:00.961Z,14.90
2023-01-09T11:21:35.927Z,12.17
2023-01-09T11:24:21.530Z,12.27
2023-01-09T11:26:53.122Z,13.70
2023-01-09T11:29:26.953Z,14.77
2023-01-09T11:31:59.677Z,9.93
2023-01-09T11:34:30.542Z,11.37
2023-01-09T11:37:14.164Z,12.27
2023-01-09T11:39:48.136Z,11.87
2023-01-09T11:42:44.417Z,9.67
2023-01-09T11:45:30.246Z,9.07
2023-01-09T11:47:58.227Z,8.50
2023-01-09T11:50:28.258Z,11.87
2023-01-09T11:53:16.167Z,12.73
2023-01-09T11:55:45.346Z,11.97
2023-01-09T11:58:18.267Z,8.90
2023-01-09T12:01:27.366Z,11.47
2023-01-09T12:04:10.613Z,45.00
2023-01-09T12:06:52.826Z,40.00
2023-01-09T12:09:39.994Z,23.67
2023-01-09T12:12:45.295Z,9.13
2023-01-09T12:15:27.381Z,13.10
2023-01-09T12:20:54.111Z,9.30
2023-01-09T12:23:27.067Z,13.43
2023-01-09T12:26:06.010Z,169.87
2023-01-09T12:28:38.691Z,134.10
2023-01-09T12:31:20.871Z,73.60
2023-01-09T12:34:03.241Z,109.67
2023-01-09T12:36:59.150Z,68.70
2023-01-09T12:39:49.944Z,41.23
2023-01-09T12:42:17.418Z,9.73
2023-01-09T12:44:53.256Z,13.63
2023-01-09T12:47:45.638Z,11.30
2023-01-09T12:50:31.063Z,8.27
2023-01-09T12:53:23.081Z,7.60
2023-01-09T12:56:18.554Z,10.40
2023-01-09T12:58:50.110Z,7.47
2023-01-09T13:01:28.804Z,7.65
2023-01-09T13:04:13.050Z,10.40
2023-01-09T13:06:51.639Z,4.97
2023-01-09T13:09:39.843Z,7.53
2023-01-09T13:12:21.956Z,6.87
2023-01-09T13:14:49.162Z,5.43
2023-01-09T13:17:40.951Z,6.13
2023-01-09T13:20:26.184Z,7.53
2023-01-09T13:22:55.179Z,7.30
2023-01-09T13:25:31.313Z,8.03
2023-01-09T13:28:03.882Z,5.67
2023-01-09T13:30:51.649Z,5.97
2023-01-09T13:33:24.176Z,7.30
2023-01-09T13:35:57.572Z,5.80
2023-01-09T13:38:27.514Z,6.03
2023-01-09T13:41:29.886Z,8.00
2023-01-09T13:44:18.014Z,6.53
2023-01-09T13:46:47.685Z,6.27
2023-01-09T13:49:32.698Z,3.40
2023-01-09T13:52:33.843Z,9.23
2023-01-09T13:55:03.473Z,7.70
2023-01-09T13:57:36.277Z,7.63
2023-01-09T14:00:15.463Z,11.00
2023-01-09T14:02:51.800Z,6.77
2023-01-09T14:05:24.950Z,6.47
2023-01-09T14:08:02.820Z,8.00
2023-01-09T14:10:37.699Z,6.43
2023-01-09T14:13:26.692Z,8.53
2023-01-09T14:16:09.559Z,5.67
2023-01-09T14:18:40.585Z,4.77
2023-01-09T14:21:11.400Z,8.93
2023-01-09T14:24:06.913Z,5.27
2023-01-09T14:26:46.344Z,5.93
2023-01-09T14:29:31.682Z,4.43
2023-01-09T14:32:23.712Z,6.77
2023-01-09T14:37:21.590Z,5.73
2023-01-09T14:39:50.627Z,7.23
2023-01-09T14:42:35.142Z,6.20
2023-01-09T14:45:14.335Z,8.17
2023-01-09T14:47:46.822Z,4.73
2023-01-09T14:50:46.527Z,5.70
2023-01-09T14:53:24.780Z,8.70
2023-01-09T14:55:59.324Z,6.83
2023-01-09T14:58:38.874Z,8.40
2023-01-09T15:01:10.493Z,9.00
2023-01-09T15:06:20.922Z,3.70
2023-01-09T15:08:56.276Z,7.70
2023-01-09T15:11:23.428Z,5.20
2023-01-09T15:13:53.353Z,6.97
2023-01-09T15:16:23.387Z,5.70
2023-01-09T15:19:01.238Z,8.33
2023-01-09T15:21:33.074Z,9.40
2023-01-09T15:24:27.143Z,5.70
2023-01-09T15:26:59.574Z,7.93
2023-01-09T15:29:28.281Z,8.60
2023-01-09T15:32:05.230Z,3.27
2023-01-09T15:34:33.263Z,10.97
2023-01-09T15:37:01.149Z,5.53
2023-01-09T15:39:39.332Z,5.80
2023-01-09T15:42:41.258Z,7.47
2023-01-09T15:45:26.210Z,10.05
2023-01-09T15:47:53.940Z,9.40
2023-01-09T15:50:30.276Z,8.37
2023-01-09T15:52:57.598Z,6.70
2023-01-09T15:55:35.286Z,4.20
2023-01-09T15:58:04.215Z,6.03
2023-01-09T16:00:41.980Z,6.57
2023-01-09T16:03:18.784Z,5.47
2023-01-09T16:05:53.002Z,9.60
2023-01-09T16:08:26.795Z,7.73
2023-01-09T16:10:57.409Z,3.57
2023-01-09T16:13:26.303Z,7.70
2023-01-09T16:15:55.847Z,6.17
2023-01-09T16:18:29.557Z,5.87
2023-01-09T16:21:22.070Z,8.10
2023-01-09T16:24:01.570Z,5.40
2023-01-09T16:26:30.870Z,6.80
2023-01-09T16:29:47.318Z,5.93
2023-01-09T16:32:23.268Z,7.67
2023-01-09T16:35:06.124Z,6.90
2023-01-09T16:37:33.979Z,9.40
2023-01-09T16:40:22.578Z,6.43
2023-01-09T16:43:00.638Z,7.60
2023-01-09T16:45:34.670Z,7.83
2023-01-09T16:48:03.461Z,4.23
2023-01-09T16:50:30.763Z,7.77
2023-01-09T16:52:58.351Z,8.03
2023-01-09T16:55:25.643Z,4.87
2023-01-09T16:57:52.834Z,5.50
2023-01-09T17:00:21.400Z,7.93
2023-01-09T17:02:48.599Z,8.37
2023-01-09T17:05:15.797Z,5.80
2023-01-09T17:07:43.059Z,6.77
2023-01-09T17:10:20.458Z,6.60
2023-01-09T17:12:48.016Z,5.07
2023-01-09T17:15:15.352Z,5.60
2023-01-09T17:17:42.482Z,5.77
2023-01-09T17:20:19.262Z,7.13
2023-01-09T17:22:46.737Z,7.37
2023-01-09T17:25:35.193Z,7.17
2023-01-09T17:28:22.349Z,5.77
2023-01-09T17:30:49.481Z,6.00
2023-01-09T17:33:20.161Z,11.50
2023-01-09T17:35:47.814Z,8.37
2023-01-09T17:38:16.153Z,6.57
2023-01-09T17:40:44.076Z,4.90
2023-01-09T17:43:12.260Z,9.03
2023-01-09T17:45:43.440Z,7.87
2023-01-09T17:48:18.930Z,5.13
2023-01-09T17:50:47.073Z,6.93
2023-01-09T17:53:15.053Z,5.23
2023-01-09T17:55:42.398Z,4.27
2023-01-09T17:58:27.132Z,7.23
2023-01-09T18:00:54.741Z,5.87
2023-01-09T18:03:24.442Z,9.63
2023-01-09T18:05:52.087Z,3.77
2023-01-09T18:08:19.253Z,9.37
2023-01-09T18:10:48.688Z,6.87
2023-01-09T18:13:17.203Z,5.33
2023-01-09T18:15:45.307Z,5.17
2023-01-09T18:18:13.149Z,8.93
2023-01-09T18:20:41.289Z,5.50
2023-01-09T18:23:11.068Z,5.53
2023-01-09T18:25:42.624Z,4.70
2023-01-09T18:28:11.433Z,5.85
2023-01-09T18:30:38.764Z,7.60
2023-01-09T18:33:06.091Z,6.40
2023-01-09T18:35:34.098Z,5.33
2023-01-09T18:38:01.201Z,5.17
2023-01-09T18:40:28.333Z,8.13
2023-01-09T18:42:56.568Z,8.30
2023-01-09T18:45:23.746Z,7.00
2023-01-09T18:47:51.004Z,12.97
2023-01-09T18:50:18.298Z,9.20
2023-01-09T18:52:45.448Z,6.13
2023-01-09T18:55:12.757Z,6.43
2023-01-09T18:57:40.183Z,5.43
2023-01-09T19:00:08.248Z,7.00
2023-01-09T19:02:35.471Z,6.27
2023-01-09T19:05:02.714Z,5.27
2023-01-09T19:07:31.358Z,5.77
2023-01-09T19:09:58.619Z,6.43
2023-01-09T19:12:25.789Z,5.10
2023-01-09T19:14:53.161Z,8.63
2023-01-09T19:17:20.923Z,5.20
2023-01-09T19:19:48.406Z,6.00
2023-01-09T19:22:15.848Z,3.63
2023-01-09T19:24:43.035Z,5.03
2023-01-09T19:27:10.127Z,4.20
2023-01-09T19:29:37.337Z,6.57
2023-01-09T19:32:08.547Z,6.70
2023-01-09T19:34:35.831Z,6.28
2023-01-09T19:37:02.974Z,6.10
2023-01-09T19:39:30.136Z,8.80
2023-01-09T19:41:57.538Z,8.00
2023-01-09T19:44:25.257Z,5.93
2023-01-09T19:46:52.483Z,7.67
2023-01-09T19:49:19.690Z,3.77
2023-01-09T19:51:46.805Z,3.17
2023-01-09T19:54:13.940Z,5.33
2023-01-09T19:56:43.991Z,8.97
2023-01-09T19:59:12.371Z,6.27
2023-01-09T20:01:41.748Z,7.07
2023-01-09T20:04:13.878Z,5.50
2023-01-09T20:06:44.055Z,5.10
2023-01-09T20:09:12.450Z,8.77
2023-01-09T20:11:41.405Z,4.30
2023-01-09T20:14:14.006Z,8.43
2023-01-09T20:16:42.341Z,6.20
2023-01-09T20:19:11.825Z,4.60
2023-01-09T20:21:39.356Z,5.10
2023-01-09T20:24:07.429Z,3.80
2023-01-09T20:26:36.468Z,4.93
2023-01-09T20:29:04.365Z,4.83
2023-01-09T20:31:33.045Z,5.30
2023-01-09T20:34:00.443Z,5.67
2023-01-09T20:36:30.334Z,4.40
2023-01-09T20:38:59.841Z,6.70
2023-01-09T20:41:27.581Z,4.50
2023-01-09T20:44:07.276Z,6.17
2023-01-09T20:46:48.194Z,2.33
2023-01-09T20:49:18.438Z,4.50
2023-01-09T20:51:50.944Z,3.37
2023-01-09T20:54:21.396Z,7.80
2023-01-09T20:56:48.619Z,4.80
2023-01-09T20:59:20.235Z,3.60
2023-01-09T21:04:15.270Z,5.50
2023-01-09T21:06:45.315Z,5.87
2023-01-09T21:09:12.725Z,7.10
2023-01-09T21:11:40.065Z,5.73
2023-01-09T21:14:07.104Z,7.60
2023-01-09T21:16:34.260Z,4.10
2023-01-09T21:19:01.382Z,7.40
2023-01-09T21:21:29.461Z,4.27
2023-01-09T21:23:59.137Z,6.93
2023-01-09T21:26:29.138Z,4.77
2023-01-09T21:28:58.183Z,7.80
2023-01-09T21:31:33.678Z,5.17
2023-01-09T21:34:07.097Z,4.00
2023-01-09T21:36:35.692Z,3.47
2023-01-09T21:39:07.460Z,8.07
2023-01-09T21:41:54.174Z,5.13
2023-01-09T21:44:39.805Z,4.93
2023-01-09T21:47:06.935Z,5.73
2023-01-09T21:49:36.093Z,5.73
2023-01-09T21:52:04.279Z,8.03
2023-01-09T21:54:32.365Z,5.47
2023-01-09T21:56:59.977Z,7.33
2023-01-09T21:59:27.398Z,5.80
2023-01-09T22:01:54.561Z,3.90
2023-01-09T22:04:24.429Z,4.47
2023-01-09T22:06:51.753Z,6.47
2023-01-09T22:09:18.901Z,7.73
2023-01-09T22:11:46.316Z,4.40
2023-01-09T22:14:18.531Z,5.63
2023-01-09T22:16:46.522Z,5.53
2023-01-09T22:19:17.467Z,4.87
2023-01-09T22:21:44.584Z,9.38
2023-01-09T22:24:17.531Z,4.07
2023-01-09T22:26:45.302Z,8.37
2023-01-09T22:29:12.559Z,6.63
2023-01-09T22:31:40.862Z,5.17
2023-01-09T22:34:11.684Z,6.60
2023-01-09T22:36:38.989Z,5.57
2023-01-09T22:39:06.240Z,4.63
2023-01-09T22:41:33.607Z,8.13
2023-01-09T22:44:00.787Z,5.63
2023-01-09T22:46:27.916Z,3.83
2023-01-09T22:48:54.943Z,4.40
2023-01-09T22:51:22.260Z,5.77
2023-01-09T22:53:50.116Z,4.83
2023-01-09T22:56:19.936Z,5.33
2023-01-09T22:58:55.848Z,1.77
2023-01-09T23:01:23.024Z,7.17
2023-01-09T23:03:50.546Z,5.27
2023-01-09T23:06:20.386Z,6.93
2023-01-09T23:08:51.132Z,5.43
2023-01-09T23:11:46.412Z,5.70
2023-01-09T23:14:13.598Z,6.43
2023-01-09T23:16:41.450Z,4.70
2023-01-09T23:19:17.483Z,6.20
2023-01-09T23:21:45.201Z,5.53
2023-01-09T23:24:14.026Z,6.13
2023-01-09T23:26:42.932Z,9.27
2023-01-09T23:29:11.037Z,5.40
2023-01-09T23:31:38.344Z,3.50
2023-01-09T23:34:08.262Z,6.87
2023-01-09T23:36:36.181Z,7.13
2023-01-09T23:39:08.792Z,3.40
2023-01-09T23:41:55.840Z,5.47
2023-01-09T23:44:23.585Z,6.93
2023-01-09T23:46:50.964Z,3.97
2023-01-09T23:49:18.145Z,4.20
2023-01-09T23:51:46.643Z,4.37
2023-01-09T23:54:14.570Z,4.37
2023-01-09T23:56:41.727Z,5.93
2023-01-09T23:59:12.011Z,6.40
